sensor_id;sensor_type;location;lat;lon;timestamp;P1;durP1;ratioP1;P2;durP2;ratioP2
36291;SDS011;22327;51.208;6.418;2023-11-19T00:01:24;4.05;;;2.80;;
36291;SDS011;22327;51.208;6.418;2023-11-19T00:04:25;5.22;;;2.58;;
36291;SDS011;22327;51.208;6.418;2023-11-19T00:07:25;2.90;;;2.60;;
36291;SDS011;22327;51.208;6.418;2023-11-19T00:10:26;5.18;;;2.97;;
36291;SDS011;22327;51.208;6.418;2023-11-19T00:13:26;4.72;;;2.67;;
36291;SDS011;22327;51.208;6.418;2023-11-19T00:16:27;4.10;;;2.53;;
36291;SDS011;22327;51.208;6.418;2023-11-19T00:19:28;4.07;;;2.47;;
36291;SDS011;22327;51.208;6.418;2023-11-19T00:22:28;3.15;;;2.40;;
36291;SDS011;22327;51.208;6.418;2023-11-19T00:25:29;3.65;;;2.50;;
36291;SDS011;22327;51.208;6.418;2023-11-19T00:28:29;4.55;;;2.88;;
36291;SDS011;22327;51.208;6.418;2023-11-19T00:31:30;2.90;;;2.40;;
36291;SDS011;22327;51.208;6.418;2023-11-19T00:34:30;4.55;;;2.42;;
36291;SDS011;22327;51.208;6.418;2023-11-19T00:37:31;3.78;;;2.40;;
36291;SDS011;22327;51.208;6.418;2023-11-19T00:40:32;3.45;;;2.33;;
36291;SDS011;22327;51.208;6.418;2023-11-19T00:43:32;2.75;;;2.10;;
36291;SDS011;22327;51.208;6.418;2023-11-19T00:46:33;2.90;;;2.60;;
36291;SDS011;22327;51.208;6.418;2023-11-19T00:49:33;3.38;;;1.80;;
36291;SDS011;22327;51.208;6.418;2023-11-19T00:52:35;2.10;;;1.70;;
36291;SDS011;22327;51.208;6.418;2023-11-19T00:55:36;3.28;;;1.98;;
36291;SDS011;22327;51.208;6.418;2023-11-19T00:58:37;2.42;;;2.03;;
36291;SDS011;22327;51.208;6.418;2023-11-19T01:01:37;2.33;;;1.73;;
36291;SDS011;22327;51.208;6.418;2023-11-19T01:04:38;4.03;;;1.80;;
36291;SDS011;22327;51.208;6.418;2023-11-19T01:07:39;2.92;;;2.10;;
36291;SDS011;22327;51.208;6.418;2023-11-19T01:10:39;1.95;;;1.35;;
36291;SDS011;22327;51.208;6.418;2023-11-19T01:13:40;2.67;;;1.73;;
36291;SDS011;22327;51.208;6.418;2023-11-19T01:16:40;2.25;;;1.73;;
36291;SDS011;22327;51.208;6.418;2023-11-19T01:19:41;2.55;;;1.67;;
36291;SDS011;22327;51.208;6.418;2023-11-19T01:22:41;2.88;;;1.58;;
36291;SDS011;22327;51.208;6.418;2023-11-19T01:25:42;5.28;;;1.80;;
36291;SDS011;22327;51.208;6.418;2023-11-19T01:28:42;3.55;;;1.75;;
36291;SDS011;22327;51.208;6.418;2023-11-19T01:31:45;4.18;;;1.58;;
36291;SDS011;22327;51.208;6.418;2023-11-19T01:34:47;3.25;;;1.70;;
36291;SDS011;22327;51.208;6.418;2023-11-19T01:37:47;3.80;;;1.50;;
36291;SDS011;22327;51.208;6.418;2023-11-19T01:40:48;1.92;;;1.70;;
36291;SDS011;22327;51.208;6.418;2023-11-19T01:43:48;3.58;;;1.77;;
36291;SDS011;22327;51.208;6.418;2023-11-19T01:46:49;4.47;;;1.85;;
36291;SDS011;22327;51.208;6.418;2023-11-19T01:49:50;4.85;;;2.05;;
36291;SDS011;22327;51.208;6.418;2023-11-19T01:52:54;4.13;;;1.60;;
36291;SDS011;22327;51.208;6.418;2023-11-19T01:55:57;4.55;;;1.95;;
36291;SDS011;22327;51.208;6.418;2023-11-19T01:58:58;5.35;;;1.70;;
36291;SDS011;22327;51.208;6.418;2023-11-19T02:01:59;4.30;;;1.80;;
36291;SDS011;22327;51.208;6.418;2023-11-19T02:05:00;4.32;;;1.80;;
36291;SDS011;22327;51.208;6.418;2023-11-19T02:08:01;5.43;;;2.30;;
36291;SDS011;22327;51.208;6.418;2023-11-19T02:11:01;8.90;;;2.40;;
36291;SDS011;22327;51.208;6.418;2023-11-19T02:14:02;6.80;;;2.20;;
36291;SDS011;22327;51.208;6.418;2023-11-19T02:17:04;6.40;;;2.70;;
36291;SDS011;22327;51.208;6.418;2023-11-19T02:20:05;6.40;;;2.85;;
36291;SDS011;22327;51.208;6.418;2023-11-19T02:23:09;9.27;;;3.20;;
36291;SDS011;22327;51.208;6.418;2023-11-19T02:26:13;7.07;;;2.67;;
36291;SDS011;22327;51.208;6.418;2023-11-19T02:29:22;9.50;;;3.92;;
36291;SDS011;22327;51.208;6.418;2023-11-19T02:32:23;9.60;;;3.17;;
36291;SDS011;22327;51.208;6.418;2023-11-19T02:38:27;8.15;;;2.38;;
36291;SDS011;22327;51.208;6.418;2023-11-19T02:41:28;9.77;;;2.70;;
36291;SDS011;22327;51.208;6.418;2023-11-19T02:44:29;6.53;;;2.50;;
36291;SDS011;22327;51.208;6.418;2023-11-19T02:47:30;12.23;;;2.75;;
36291;SDS011;22327;51.208;6.418;2023-11-19T02:50:31;8.27;;;2.28;;
36291;SDS011;22327;51.208;6.418;2023-11-19T02:53:31;8.48;;;2.20;;
36291;SDS011;22327;51.208;6.418;2023-11-19T02:56:32;11.38;;;2.40;;
36291;SDS011;22327;51.208;6.418;2023-11-19T02:59:37;10.02;;;2.65;;
36291;SDS011;22327;51.208;6.418;2023-11-19T03:02:40;8.45;;;2.78;;
36291;SDS011;22327;51.208;6.418;2023-11-19T03:05:46;7.90;;;2.00;;
36291;SDS011;22327;51.208;6.418;2023-11-19T03:08:47;4.47;;;1.77;;
36291;SDS011;22327;51.208;6.418;2023-11-19T03:11:48;11.75;;;2.35;;
36291;SDS011;22327;51.208;6.418;2023-11-19T03:14:49;12.68;;;2.55;;
36291;SDS011;22327;51.208;6.418;2023-11-19T03:17:50;7.60;;;2.17;;
36291;SDS011;22327;51.208;6.418;2023-11-19T03:20:51;12.35;;;2.13;;
36291;SDS011;22327;51.208;6.418;2023-11-19T03:23:52;11.57;;;2.35;;
36291;SDS011;22327;51.208;6.418;2023-11-19T03:26:52;11.48;;;1.80;;
36291;SDS011;22327;51.208;6.418;2023-11-19T03:29:53;11.55;;;2.70;;
36291;SDS011;22327;51.208;6.418;2023-11-19T03:32:57;12.13;;;2.20;;
36291;SDS011;22327;51.208;6.418;2023-11-19T03:35:57;10.63;;;2.50;;
36291;SDS011;22327;51.208;6.418;2023-11-19T03:38:58;14.95;;;1.90;;
36291;SDS011;22327;51.208;6.418;2023-11-19T03:41:58;13.93;;;2.92;;
36291;SDS011;22327;51.208;6.418;2023-11-19T03:45:00;16.45;;;3.08;;
36291;SDS011;22327;51.208;6.418;2023-11-19T03:48:00;10.55;;;2.20;;
36291;SDS011;22327;51.208;6.418;2023-11-19T03:51:01;10.00;;;2.28;;
36291;SDS011;22327;51.208;6.418;2023-11-19T03:54:01;10.48;;;2.70;;
36291;SDS011;22327;51.208;6.418;2023-11-19T03:57:02;13.77;;;2.20;;
36291;SDS011;22327;51.208;6.418;2023-11-19T04:00:04;11.18;;;2.58;;
36291;SDS011;22327;51.208;6.418;2023-11-19T04:03:19;14.02;;;2.42;;
36291;SDS011;22327;51.208;6.418;2023-11-19T04:06:20;15.40;;;2.58;;
36291;SDS011;22327;51.208;6.418;2023-11-19T04:09:21;15.18;;;2.70;;
36291;SDS011;22327;51.208;6.418;2023-11-19T04:12:22;11.18;;;2.28;;
36291;SDS011;22327;51.208;6.418;2023-11-19T04:15:22;14.88;;;2.70;;
36291;SDS011;22327;51.208;6.418;2023-11-19T04:18:24;10.20;;;2.15;;
36291;SDS011;22327;51.208;6.418;2023-11-19T04:21:24;11.70;;;2.42;;
36291;SDS011;22327;51.208;6.418;2023-11-19T04:24:25;14.68;;;2.03;;
36291;SDS011;22327;51.208;6.418;2023-11-19T04:27:25;12.70;;;2.25;;
36291;SDS011;22327;51.208;6.418;2023-11-19T04:30:26;15.75;;;2.35;;
36291;SDS011;22327;51.208;6.418;2023-11-19T04:33:26;17.83;;;2.60;;
36291;SDS011;22327;51.208;6.418;2023-11-19T04:36:27;12.93;;;2.42;;
36291;SDS011;22327;51.208;6.418;2023-11-19T04:39:29;17.13;;;3.15;;
36291;SDS011;22327;51.208;6.418;2023-11-19T04:42:30;13.95;;;2.70;;
36291;SDS011;22327;51.208;6.418;2023-11-19T04:45:32;12.05;;;2.03;;
36291;SDS011;22327;51.208;6.418;2023-11-19T04:48:32;13.80;;;2.95;;
36291;SDS011;22327;51.208;6.418;2023-11-19T04:51:37;14.65;;;2.92;;
36291;SDS011;22327;51.208;6.418;2023-11-19T04:54:42;13.23;;;2.50;;
36291;SDS011;22327;51.208;6.418;2023-11-19T04:57:43;9.73;;;3.10;;
36291;SDS011;22327;51.208;6.418;2023-11-19T05:00:43;16.33;;;2.40;;
36291;SDS011;22327;51.208;6.418;2023-11-19T05:03:45;17.52;;;4.05;;
36291;SDS011;22327;51.208;6.418;2023-11-19T05:06:45;16.33;;;2.70;;
36291;SDS011;22327;51.208;6.418;2023-11-19T05:09:46;18.10;;;2.90;;
36291;SDS011;22327;51.208;6.418;2023-11-19T05:12:46;14.32;;;2.55;;
36291;SDS011;22327;51.208;6.418;2023-11-19T05:15:47;16.52;;;2.38;;
36291;SDS011;22327;51.208;6.418;2023-11-19T05:18:47;15.50;;;2.38;;
36291;SDS011;22327;51.208;6.418;2023-11-19T05:21:48;15.52;;;3.08;;
36291;SDS011;22327;51.208;6.418;2023-11-19T05:24:52;15.30;;;2.47;;
36291;SDS011;22327;51.208;6.418;2023-11-19T05:27:53;16.60;;;2.70;;
36291;SDS011;22327;51.208;6.418;2023-11-19T05:30:54;9.98;;;2.05;;
36291;SDS011;22327;51.208;6.418;2023-11-19T05:33:55;14.60;;;2.42;;
36291;SDS011;22327;51.208;6.418;2023-11-19T05:36:55;14.93;;;2.38;;
36291;SDS011;22327;51.208;6.418;2023-11-19T05:39:57;11.07;;;2.20;;
36291;SDS011;22327;51.208;6.418;2023-11-19T05:43:00;11.93;;;2.55;;
36291;SDS011;22327;51.208;6.418;2023-11-19T05:46:00;13.23;;;1.98;;
36291;SDS011;22327;51.208;6.418;2023-11-19T05:49:04;14.63;;;2.67;;
36291;SDS011;22327;51.208;6.418;2023-11-19T05:52:04;16.73;;;3.78;;
36291;SDS011;22327;51.208;6.418;2023-11-19T05:55:07;13.48;;;2.35;;
36291;SDS011;22327;51.208;6.418;2023-11-19T05:58:10;12.93;;;2.20;;
36291;SDS011;22327;51.208;6.418;2023-11-19T06:01:14;13.40;;;2.90;;
36291;SDS011;22327;51.208;6.418;2023-11-19T06:04:15;15.35;;;2.55;;
36291;SDS011;22327;51.208;6.418;2023-11-19T06:07:16;15.30;;;2.30;;
36291;SDS011;22327;51.208;6.418;2023-11-19T06:10:16;16.58;;;2.92;;
36291;SDS011;22327;51.208;6.418;2023-11-19T06:13:17;11.90;;;3.22;;
36291;SDS011;22327;51.208;6.418;2023-11-19T06:16:17;17.52;;;2.63;;
36291;SDS011;22327;51.208;6.418;2023-11-19T06:19:18;13.50;;;2.17;;
36291;SDS011;22327;51.208;6.418;2023-11-19T06:22:19;14.63;;;3.05;;
36291;SDS011;22327;51.208;6.418;2023-11-19T06:25:19;14.25;;;2.22;;
36291;SDS011;22327;51.208;6.418;2023-11-19T06:28:20;19.17;;;3.17;;
36291;SDS011;22327;51.208;6.418;2023-11-19T06:31:20;12.57;;;2.72;;
36291;SDS011;22327;51.208;6.418;2023-11-19T06:34:21;14.18;;;2.80;;
36291;SDS011;22327;51.208;6.418;2023-11-19T06:37:22;11.10;;;2.15;;
36291;SDS011;22327;51.208;6.418;2023-11-19T06:40:22;12.43;;;2.05;;
36291;SDS011;22327;51.208;6.418;2023-11-19T06:43:23;16.00;;;2.33;;
36291;SDS011;22327;51.208;6.418;2023-11-19T06:46:23;16.10;;;2.80;;
36291;SDS011;22327;51.208;6.418;2023-11-19T06:49:24;14.68;;;2.83;;
36291;SDS011;22327;51.208;6.418;2023-11-19T06:52:24;12.85;;;2.42;;
36291;SDS011;22327;51.208;6.418;2023-11-19T06:55:26;17.20;;;3.15;;
36291;SDS011;22327;51.208;6.418;2023-11-19T06:58:27;16.10;;;2.60;;
36291;SDS011;22327;51.208;6.418;2023-11-19T07:01:27;20.55;;;3.13;;
36291;SDS011;22327;51.208;6.418;2023-11-19T07:04:28;17.10;;;2.83;;
36291;SDS011;22327;51.208;6.418;2023-11-19T07:07:28;14.10;;;3.03;;
36291;SDS011;22327;51.208;6.418;2023-11-19T07:10:30;20.38;;;3.05;;
36291;SDS011;22327;51.208;6.418;2023-11-19T07:13:30;17.83;;;2.97;;
36291;SDS011;22327;51.208;6.418;2023-11-19T07:16:31;18.02;;;3.10;;
36291;SDS011;22327;51.208;6.418;2023-11-19T07:19:37;15.55;;;2.63;;
36291;SDS011;22327;51.208;6.418;2023-11-19T07:22:38;15.75;;;2.65;;
36291;SDS011;22327;51.208;6.418;2023-11-19T07:25:38;16.40;;;3.15;;
36291;SDS011;22327;51.208;6.418;2023-11-19T07:28:39;17.88;;;2.88;;
36291;SDS011;22327;51.208;6.418;2023-11-19T07:31:39;16.75;;;2.72;;
36291;SDS011;22327;51.208;6.418;2023-11-19T07:34:40;18.83;;;3.30;;
36291;SDS011;22327;51.208;6.418;2023-11-19T07:37:44;19.90;;;3.75;;
36291;SDS011;22327;51.208;6.418;2023-11-19T07:40:45;18.00;;;3.17;;
36291;SDS011;22327;51.208;6.418;2023-11-19T07:43:47;17.42;;;2.88;;
36291;SDS011;22327;51.208;6.418;2023-11-19T07:46:48;14.60;;;2.67;;
36291;SDS011;22327;51.208;6.418;2023-11-19T07:49:48;14.25;;;2.20;;
36291;SDS011;22327;51.208;6.418;2023-11-19T07:52:50;15.30;;;2.35;;
36291;SDS011;22327;51.208;6.418;2023-11-19T07:55:50;16.45;;;2.88;;
36291;SDS011;22327;51.208;6.418;2023-11-19T07:58:51;12.90;;;2.40;;
36291;SDS011;22327;51.208;6.418;2023-11-19T08:01:52;18.38;;;3.13;;
36291;SDS011;22327;51.208;6.418;2023-11-19T08:04:53;17.00;;;2.72;;
36291;SDS011;22327;51.208;6.418;2023-11-19T08:07:55;16.77;;;3.05;;
36291;SDS011;22327;51.208;6.418;2023-11-19T08:10:56;14.68;;;2.65;;
36291;SDS011;22327;51.208;6.418;2023-11-19T08:13:56;13.52;;;3.08;;
36291;SDS011;22327;51.208;6.418;2023-11-19T08:16:57;14.65;;;3.13;;
36291;SDS011;22327;51.208;6.418;2023-11-19T08:19:59;13.55;;;2.58;;
36291;SDS011;22327;51.208;6.418;2023-11-19T08:23:01;7.88;;;2.15;;
36291;SDS011;22327;51.208;6.418;2023-11-19T08:26:04;14.73;;;2.58;;
36291;SDS011;22327;51.208;6.418;2023-11-19T08:29:05;14.13;;;2.78;;
36291;SDS011;22327;51.208;6.418;2023-11-19T08:32:06;15.43;;;3.05;;
36291;SDS011;22327;51.208;6.418;2023-11-19T08:35:07;14.32;;;2.55;;
36291;SDS011;22327;51.208;6.418;2023-11-19T08:38:07;16.77;;;2.58;;
36291;SDS011;22327;51.208;6.418;2023-11-19T08:41:08;12.45;;;2.45;;
36291;SDS011;22327;51.208;6.418;2023-11-19T08:44:08;12.88;;;2.47;;
36291;SDS011;22327;51.208;6.418;2023-11-19T08:47:09;12.57;;;2.67;;
36291;SDS011;22327;51.208;6.418;2023-11-19T08:50:11;14.35;;;2.80;;
36291;SDS011;22327;51.208;6.418;2023-11-19T08:53:12;12.07;;;2.58;;
36291;SDS011;22327;51.208;6.418;2023-11-19T08:56:12;18.00;;;3.72;;
36291;SDS011;22327;51.208;6.418;2023-11-19T08:59:14;15.98;;;2.70;;
36291;SDS011;22327;51.208;6.418;2023-11-19T09:02:15;14.98;;;3.28;;
36291;SDS011;22327;51.208;6.418;2023-11-19T09:05:16;16.48;;;2.78;;
36291;SDS011;22327;51.208;6.418;2023-11-19T09:08:17;14.85;;;2.20;;
36291;SDS011;22327;51.208;6.418;2023-11-19T09:11:17;18.13;;;3.42;;
36291;SDS011;22327;51.208;6.418;2023-11-19T09:14:18;15.43;;;2.88;;
36291;SDS011;22327;51.208;6.418;2023-11-19T09:17:18;12.05;;;2.40;;
36291;SDS011;22327;51.208;6.418;2023-11-19T09:20:19;15.13;;;2.72;;
36291;SDS011;22327;51.208;6.418;2023-11-19T09:23:19;15.50;;;3.28;;
36291;SDS011;22327;51.208;6.418;2023-11-19T09:26:20;11.82;;;2.28;;
36291;SDS011;22327;51.208;6.418;2023-11-19T09:29:21;12.43;;;3.00;;
36291;SDS011;22327;51.208;6.418;2023-11-19T09:32:21;15.50;;;2.20;;
36291;SDS011;22327;51.208;6.418;2023-11-19T09:35:22;20.10;;;3.20;;
36291;SDS011;22327;51.208;6.418;2023-11-19T09:38:22;15.95;;;3.20;;
36291;SDS011;22327;51.208;6.418;2023-11-19T09:41:23;13.75;;;2.53;;
36291;SDS011;22327;51.208;6.418;2023-11-19T09:44:24;11.85;;;2.03;;
36291;SDS011;22327;51.208;6.418;2023-11-19T09:47:25;13.77;;;2.60;;
36291;SDS011;22327;51.208;6.418;2023-11-19T09:50:27;13.80;;;2.70;;
36291;SDS011;22327;51.208;6.418;2023-11-19T09:53:28;14.75;;;2.58;;
36291;SDS011;22327;51.208;6.418;2023-11-19T09:56:29;17.40;;;2.78;;
36291;SDS011;22327;51.208;6.418;2023-11-19T09:59:30;15.00;;;3.20;;
36291;SDS011;22327;51.208;6.418;2023-11-19T10:02:31;11.82;;;2.15;;
36291;SDS011;22327;51.208;6.418;2023-11-19T10:05:36;19.98;;;4.47;;
36291;SDS011;22327;51.208;6.418;2023-11-19T10:08:39;18.00;;;3.05;;
36291;SDS011;22327;51.208;6.418;2023-11-19T10:11:40;16.15;;;4.20;;
36291;SDS011;22327;51.208;6.418;2023-11-19T10:14:40;13.70;;;2.35;;
36291;SDS011;22327;51.208;6.418;2023-11-19T10:17:42;13.93;;;3.08;;
36291;SDS011;22327;51.208;6.418;2023-11-19T10:20:43;13.40;;;2.65;;
36291;SDS011;22327;51.208;6.418;2023-11-19T10:23:48;16.92;;;2.97;;
36291;SDS011;22327;51.208;6.418;2023-11-19T10:26:52;12.38;;;2.30;;
36291;SDS011;22327;51.208;6.418;2023-11-19T10:29:59;16.73;;;2.85;;
36291;SDS011;22327;51.208;6.418;2023-11-19T10:36:11;12.63;;;3.08;;
36291;SDS011;22327;51.208;6.418;2023-11-19T10:39:12;12.10;;;3.70;;
36291;SDS011;22327;51.208;6.418;2023-11-19T10:42:16;14.02;;;2.83;;
36291;SDS011;22327;51.208;6.418;2023-11-19T10:45:22;13.20;;;3.60;;
36291;SDS011;22327;51.208;6.418;2023-11-19T10:48:23;12.23;;;3.53;;
36291;SDS011;22327;51.208;6.418;2023-11-19T10:51:25;13.57;;;2.70;;
36291;SDS011;22327;51.208;6.418;2023-11-19T10:54:26;8.65;;;2.10;;
36291;SDS011;22327;51.208;6.418;2023-11-19T10:57:27;12.10;;;2.40;;
36291;SDS011;22327;51.208;6.418;2023-11-19T11:03:39;13.85;;;3.20;;
36291;SDS011;22327;51.208;6.418;2023-11-19T11:06:41;11.20;;;2.10;;
36291;SDS011;22327;51.208;6.418;2023-11-19T11:09:42;12.93;;;3.28;;
36291;SDS011;22327;51.208;6.418;2023-11-19T11:12:44;9.45;;;1.90;;
36291;SDS011;22327;51.208;6.418;2023-11-19T11:15:46;15.95;;;2.08;;
36291;SDS011;22327;51.208;6.418;2023-11-19T11:18:47;10.88;;;2.55;;
36291;SDS011;22327;51.208;6.418;2023-11-19T11:21:50;17.73;;;3.67;;
36291;SDS011;22327;51.208;6.418;2023-11-19T11:28:12;8.73;;;2.00;;
36291;SDS011;22327;51.208;6.418;2023-11-19T11:38:11;10.15;;;1.75;;
36291;SDS011;22327;51.208;6.418;2023-11-19T11:41:18;9.85;;;2.13;;
36291;SDS011;22327;51.208;6.418;2023-11-19T11:44:31;16.75;;;2.20;;
36291;SDS011;22327;51.208;6.418;2023-11-19T11:50:58;10.48;;;2.67;;
36291;SDS011;22327;51.208;6.418;2023-11-19T11:53:59;12.63;;;2.75;;
36291;SDS011;22327;51.208;6.418;2023-11-19T12:00:08;11.55;;;1.60;;
36291;SDS011;22327;51.208;6.418;2023-11-19T12:03:21;8.68;;;2.17;;
36291;SDS011;22327;51.208;6.418;2023-11-19T12:06:22;8.35;;;2.10;;
36291;SDS011;22327;51.208;6.418;2023-11-19T12:09:23;8.75;;;2.55;;
36291;SDS011;22327;51.208;6.418;2023-11-19T12:12:26;10.80;;;1.80;;
36291;SDS011;22327;51.208;6.418;2023-11-19T12:21:30;13.23;;;1.92;;
36291;SDS011;22327;51.208;6.418;2023-11-19T12:24:31;17.15;;;2.90;;
36291;SDS011;22327;51.208;6.418;2023-11-19T12:27:32;14.73;;;2.40;;
36291;SDS011;22327;51.208;6.418;2023-11-19T12:33:36;11.63;;;2.20;;
36291;SDS011;22327;51.208;6.418;2023-11-19T12:36:37;15.07;;;3.53;;
36291;SDS011;22327;51.208;6.418;2023-11-19T12:39:38;12.02;;;2.85;;
36291;SDS011;22327;51.208;6.418;2023-11-19T12:42:40;8.60;;;2.03;;
36291;SDS011;22327;51.208;6.418;2023-11-19T12:45:41;10.00;;;2.92;;
36291;SDS011;22327;51.208;6.418;2023-11-19T12:48:41;11.55;;;2.30;;
36291;SDS011;22327;51.208;6.418;2023-11-19T12:51:42;11.75;;;2.38;;
36291;SDS011;22327;51.208;6.418;2023-11-19T12:54:42;14.00;;;2.33;;
36291;SDS011;22327;51.208;6.418;2023-11-19T12:57:43;15.20;;;2.42;;
36291;SDS011;22327;51.208;6.418;2023-11-19T13:00:44;15.02;;;2.17;;
36291;SDS011;22327;51.208;6.418;2023-11-19T13:03:44;9.82;;;1.73;;
36291;SDS011;22327;51.208;6.418;2023-11-19T13:06:46;9.18;;;2.17;;
36291;SDS011;22327;51.208;6.418;2023-11-19T13:09:47;13.75;;;2.95;;
36291;SDS011;22327;51.208;6.418;2023-11-19T13:13:03;9.65;;;2.30;;
36291;SDS011;22327;51.208;6.418;2023-11-19T13:16:06;12.55;;;2.42;;
36291;SDS011;22327;51.208;6.418;2023-11-19T13:19:06;9.73;;;2.95;;
36291;SDS011;22327;51.208;6.418;2023-11-19T13:22:08;11.45;;;2.78;;
36291;SDS011;22327;51.208;6.418;2023-11-19T13:25:09;15.23;;;2.80;;
36291;SDS011;22327;51.208;6.418;2023-11-19T13:28:09;13.07;;;3.38;;
36291;SDS011;22327;51.208;6.418;2023-11-19T13:31:10;8.18;;;1.88;;
36291;SDS011;22327;51.208;6.418;2023-11-19T13:34:10;12.05;;;2.60;;
36291;SDS011;22327;51.208;6.418;2023-11-19T13:37:11;11.30;;;2.47;;
36291;SDS011;22327;51.208;6.418;2023-11-19T13:40:11;9.55;;;1.92;;
36291;SDS011;22327;51.208;6.418;2023-11-19T13:43:15;11.35;;;2.30;;
36291;SDS011;22327;51.208;6.418;2023-11-19T13:46:16;9.35;;;2.17;;
36291;SDS011;22327;51.208;6.418;2023-11-19T13:49:16;9.27;;;1.98;;
36291;SDS011;22327;51.208;6.418;2023-11-19T13:52:17;11.10;;;1.73;;
36291;SDS011;22327;51.208;6.418;2023-11-19T13:55:17;12.88;;;2.10;;
36291;SDS011;22327;51.208;6.418;2023-11-19T13:58:18;11.27;;;2.63;;
36291;SDS011;22327;51.208;6.418;2023-11-19T14:01:18;10.82;;;2.22;;
36291;SDS011;22327;51.208;6.418;2023-11-19T14:04:19;9.27;;;2.03;;
36291;SDS011;22327;51.208;6.418;2023-11-19T14:07:19;16.70;;;3.08;;
36291;SDS011;22327;51.208;6.418;2023-11-19T14:10:20;13.93;;;2.22;;
36291;SDS011;22327;51.208;6.418;2023-11-19T14:13:20;7.93;;;2.30;;
36291;SDS011;22327;51.208;6.418;2023-11-19T14:16:21;11.10;;;3.83;;
36291;SDS011;22327;51.208;6.418;2023-11-19T14:19:22;11.50;;;2.40;;
36291;SDS011;22327;51.208;6.418;2023-11-19T14:22:22;15.48;;;2.88;;
36291;SDS011;22327;51.208;6.418;2023-11-19T14:25:23;21.63;;;11.73;;
36291;SDS011;22327;51.208;6.418;2023-11-19T14:28:24;64.85;;;36.20;;
36291;SDS011;22327;51.208;6.418;2023-11-19T14:31:27;69.60;;;38.80;;
36291;SDS011;22327;51.208;6.418;2023-11-19T14:34:32;85.93;;;50.17;;
36291;SDS011;22327;51.208;6.418;2023-11-19T14:37:32;16.20;;;5.80;;
36291;SDS011;22327;51.208;6.418;2023-11-19T14:40:33;22.70;;;10.13;;
36291;SDS011;22327;51.208;6.418;2023-11-19T14:43:34;18.23;;;5.82;;
36291;SDS011;22327;51.208;6.418;2023-11-19T14:46:34;14.57;;;4.15;;
36291;SDS011;22327;51.208;6.418;2023-11-19T14:49:35;14.68;;;5.22;;
36291;SDS011;22327;51.208;6.418;2023-11-19T14:52:36;18.92;;;8.10;;
36291;SDS011;22327;51.208;6.418;2023-11-19T14:55:37;21.67;;;10.07;;
36291;SDS011;22327;51.208;6.418;2023-11-19T14:58:38;17.05;;;4.90;;
36291;SDS011;22327;51.208;6.418;2023-11-19T15:01:38;19.48;;;5.53;;
36291;SDS011;22327;51.208;6.418;2023-11-19T15:04:40;20.35;;;8.02;;
36291;SDS011;22327;51.208;6.418;2023-11-19T15:07:42;21.42;;;6.32;;
36291;SDS011;22327;51.208;6.418;2023-11-19T15:10:42;18.33;;;5.28;;
36291;SDS011;22327;51.208;6.418;2023-11-19T15:13:45;12.15;;;4.00;;
36291;SDS011;22327;51.208;6.418;2023-11-19T15:16:45;22.48;;;8.52;;
36291;SDS011;22327;51.208;6.418;2023-11-19T15:19:46;22.95;;;7.10;;
36291;SDS011;22327;51.208;6.418;2023-11-19T15:22:47;20.00;;;5.50;;
36291;SDS011;22327;51.208;6.418;2023-11-19T15:25:48;14.50;;;3.80;;
36291;SDS011;22327;51.208;6.418;2023-11-19T15:28:49;17.27;;;4.57;;
36291;SDS011;22327;51.208;6.418;2023-11-19T15:31:49;17.80;;;6.47;;
36291;SDS011;22327;51.208;6.418;2023-11-19T15:34:50;19.02;;;7.25;;
36291;SDS011;22327;51.208;6.418;2023-11-19T15:37:51;14.90;;;4.82;;
36291;SDS011;22327;51.208;6.418;2023-11-19T15:40:52;18.17;;;6.85;;
36291;SDS011;22327;51.208;6.418;2023-11-19T15:43:52;17.13;;;6.05;;
36291;SDS011;22327;51.208;6.418;2023-11-19T15:46:54;12.02;;;2.65;;
36291;SDS011;22327;51.208;6.418;2023-11-19T15:49:55;14.60;;;2.92;;
36291;SDS011;22327;51.208;6.418;2023-11-19T15:52:55;12.63;;;2.85;;
36291;SDS011;22327;51.208;6.418;2023-11-19T15:55:56;13.90;;;2.78;;
36291;SDS011;22327;51.208;6.418;2023-11-19T15:58:58;11.85;;;3.00;;
36291;SDS011;22327;51.208;6.418;2023-11-19T16:01:58;13.00;;;3.13;;
36291;SDS011;22327;51.208;6.418;2023-11-19T16:04:59;13.90;;;3.10;;
36291;SDS011;22327;51.208;6.418;2023-11-19T16:08:00;19.23;;;3.20;;
36291;SDS011;22327;51.208;6.418;2023-11-19T16:11:00;16.17;;;3.67;;
36291;SDS011;22327;51.208;6.418;2023-11-19T16:14:01;19.00;;;3.22;;
36291;SDS011;22327;51.208;6.418;2023-11-19T16:17:02;14.38;;;2.65;;
36291;SDS011;22327;51.208;6.418;2023-11-19T16:20:03;12.82;;;3.05;;
36291;SDS011;22327;51.208;6.418;2023-11-19T16:23:06;10.75;;;2.58;;
36291;SDS011;22327;51.208;6.418;2023-11-19T16:26:07;13.88;;;2.80;;
36291;SDS011;22327;51.208;6.418;2023-11-19T16:29:07;14.73;;;2.75;;
36291;SDS011;22327;51.208;6.418;2023-11-19T16:32:08;15.25;;;3.00;;
36291;SDS011;22327;51.208;6.418;2023-11-19T16:35:09;12.13;;;3.20;;
36291;SDS011;22327;51.208;6.418;2023-11-19T16:38:10;19.92;;;4.43;;
36291;SDS011;22327;51.208;6.418;2023-11-19T16:41:10;13.93;;;2.70;;
36291;SDS011;22327;51.208;6.418;2023-11-19T16:44:13;17.50;;;5.38;;
36291;SDS011;22327;51.208;6.418;2023-11-19T16:47:14;17.23;;;5.25;;
36291;SDS011;22327;51.208;6.418;2023-11-19T16:50:14;20.73;;;6.43;;
36291;SDS011;22327;51.208;6.418;2023-11-19T16:53:19;15.13;;;3.80;;
36291;SDS011;22327;51.208;6.418;2023-11-19T16:56:19;14.68;;;2.67;;
36291;SDS011;22327;51.208;6.418;2023-11-19T16:59:20;17.23;;;3.28;;
36291;SDS011;22327;51.208;6.418;2023-11-19T17:02:24;18.90;;;3.13;;
36291;SDS011;22327;51.208;6.418;2023-11-19T17:05:25;18.73;;;3.13;;
36291;SDS011;22327;51.208;6.418;2023-11-19T17:08:25;21.80;;;2.90;;
36291;SDS011;22327;51.208;6.418;2023-11-19T17:11:26;23.13;;;5.35;;
36291;SDS011;22327;51.208;6.418;2023-11-19T17:14:27;22.45;;;5.22;;
36291;SDS011;22327;51.208;6.418;2023-11-19T17:17:27;24.80;;;4.30;;
36291;SDS011;22327;51.208;6.418;2023-11-19T17:20:33;17.30;;;4.35;;
36291;SDS011;22327;51.208;6.418;2023-11-19T17:23:37;21.30;;;5.30;;
36291;SDS011;22327;51.208;6.418;2023-11-19T17:26:39;18.08;;;4.95;;
36291;SDS011;22327;51.208;6.418;2023-11-19T17:29:40;18.33;;;4.90;;
36291;SDS011;22327;51.208;6.418;2023-11-19T17:32:40;23.67;;;6.65;;
36291;SDS011;22327;51.208;6.418;2023-11-19T17:35:41;18.90;;;4.20;;
36291;SDS011;22327;51.208;6.418;2023-11-19T17:38:41;16.95;;;4.28;;
36291;SDS011;22327;51.208;6.418;2023-11-19T17:41:42;15.65;;;3.78;;
36291;SDS011;22327;51.208;6.418;2023-11-19T17:44:43;15.35;;;3.20;;
36291;SDS011;22327;51.208;6.418;2023-11-19T17:47:43;16.13;;;3.28;;
36291;SDS011;22327;51.208;6.418;2023-11-19T17:50:44;11.95;;;3.67;;
36291;SDS011;22327;51.208;6.418;2023-11-19T17:53:45;15.98;;;4.18;;
36291;SDS011;22327;51.208;6.418;2023-11-19T17:56:46;15.00;;;3.72;;
36291;SDS011;22327;51.208;6.418;2023-11-19T17:59:46;18.52;;;3.38;;
36291;SDS011;22327;51.208;6.418;2023-11-19T18:02:49;15.32;;;3.35;;
36291;SDS011;22327;51.208;6.418;2023-11-19T18:05:51;16.63;;;3.90;;
36291;SDS011;22327;51.208;6.418;2023-11-19T18:08:52;14.00;;;2.53;;
36291;SDS011;22327;51.208;6.418;2023-11-19T18:11:53;15.30;;;3.60;;
36291;SDS011;22327;51.208;6.418;2023-11-19T18:14:54;15.32;;;3.17;;
36291;SDS011;22327;51.208;6.418;2023-11-19T18:17:54;15.05;;;4.13;;
36291;SDS011;22327;51.208;6.418;2023-11-19T18:20:55;14.15;;;3.45;;
36291;SDS011;22327;51.208;6.418;2023-11-19T18:23:56;14.73;;;4.90;;
36291;SDS011;22327;51.208;6.418;2023-11-19T18:26:56;16.85;;;4.93;;
36291;SDS011;22327;51.208;6.418;2023-11-19T18:29:57;14.23;;;3.03;;
36291;SDS011;22327;51.208;6.418;2023-11-19T18:32:58;15.05;;;3.13;;
36291;SDS011;22327;51.208;6.418;2023-11-19T18:35:58;18.10;;;3.55;;